sensor_id;sensor_type;location;lat;lon;timestamp;pressure;altitude;pressure_sealevel;temperature;humidity
57900;BME280;60605;53.716;19.940;2023-03-03T00:00:37;100661.13;;;-2.86;100.00
57900;BME280;60605;53.716;19.940;2023-03-03T00:05:52;100658.06;;;-2.88;100.00
57900;BME280;60605;53.716;19.940;2023-03-03T00:10:55;100643.81;;;-2.90;100.00
57900;BME280;60605;53.716;19.940;2023-03-03T00:16:34;100635.02;;;-2.89;100.00
57900;BME280;60605;53.716;19.940;2023-03-03T00:21:39;100635.83;;;-2.87;100.00
57900;BME280;60605;53.716;19.940;2023-03-03T00:26:53;100641.91;;;-2.82;100.00
57900;BME280;60605;53.716;19.940;2023-03-03T00:42:26;100632.77;;;-2.59;100.00
57900;BME280;60605;53.716;19.940;2023-03-03T00:47:34;100637.59;;;-2.48;100.00
57900;BME280;60605;53.716;19.940;2023-03-03T00:52:44;100630.45;;;-2.41;100.00
57900;BME280;60605;53.716;19.940;2023-03-03T00:57:49;100628.52;;;-2.37;100.00
57900;BME280;60605;53.716;19.940;2023-03-03T01:02:52;100625.48;;;-2.35;100.00
57900;BME280;60605;53.716;19.940;2023-03-03T01:07:56;100614.48;;;-2.35;100.00
57900;BME280;60605;53.716;19.940;2023-03-03T01:12:59;100612.77;;;-2.36;100.00
57900;BME280;60605;53.716;19.940;2023-03-03T01:18:02;100602.97;;;-2.36;100.00
57900;BME280;60605;53.716;19.940;2023-03-03T01:23:06;100587.15;;;-2.34;100.00
57900;BME280;60605;53.716;19.940;2023-03-03T01:28:10;100575.29;;;-2.35;100.00
57900;BME280;60605;53.716;19.940;2023-03-03T01:33:13;100572.02;;;-2.32;100.00
57900;BME280;60605;53.716;19.940;2023-03-03T01:38:17;100562.67;;;-2.30;100.00
57900;BME280;60605;53.716;19.940;2023-03-03T01:43:21;100563.14;;;-2.29;100.00
57900;BME280;60605;53.716;19.940;2023-03-03T01:48:33;100561.04;;;-2.29;100.00
57900;BME280;60605;53.716;19.940;2023-03-03T01:53:43;100572.70;;;-2.27;100.00
57900;BME280;60605;53.716;19.940;2023-03-03T01:59:19;100572.85;;;-2.27;100.00
57900;BME280;60605;53.716;19.940;2023-03-03T02:04:23;100569.92;;;-2.28;100.00
57900;BME280;60605;53.716;19.940;2023-03-03T02:14:56;100558.55;;;-2.32;100.00
57900;BME280;60605;53.716;19.940;2023-03-03T02:20:09;100551.02;;;-2.36;100.00
57900;BME280;60605;53.716;19.940;2023-03-03T02:25:25;100543.10;;;-2.39;100.00
57900;BME280;60605;53.716;19.940;2023-03-03T02:30:37;100544.82;;;-2.42;100.00
57900;BME280;60605;53.716;19.940;2023-03-03T02:35:41;100537.90;;;-2.48;100.00
57900;BME280;60605;53.716;19.940;2023-03-03T02:41:08;100535.08;;;-2.51;100.00
57900;BME280;60605;53.716;19.940;2023-03-03T02:46:13;100535.73;;;-2.55;100.00
57900;BME280;60605;53.716;19.940;2023-03-03T02:51:17;100536.63;;;-2.55;100.00
57900;BME280;60605;53.716;19.940;2023-03-03T02:56:20;100533.98;;;-2.54;100.00
57900;BME280;60605;53.716;19.940;2023-03-03T03:01:24;100536.34;;;-2.52;100.00
57900;BME280;60605;53.716;19.940;2023-03-03T03:06:27;100534.90;;;-2.51;100.00
57900;BME280;60605;53.716;19.940;2023-03-03T03:11:31;100528.11;;;-2.52;100.00
57900;BME280;60605;53.716;19.940;2023-03-03T03:16:34;100522.23;;;-2.54;100.00
57900;BME280;60605;53.716;19.940;2023-03-03T03:21:38;100517.34;;;-2.58;100.00
57900;BME280;60605;53.716;19.940;2023-03-03T03:26:41;100521.15;;;-2.61;100.00
57900;BME280;60605;53.716;19.940;2023-03-03T03:31:44;100520.27;;;-2.61;100.00
57900;BME280;60605;53.716;19.940;2023-03-03T03:36:48;100516.83;;;-2.58;100.00
57900;BME280;60605;53.716;19.940;2023-03-03T03:41:51;100506.88;;;-2.54;100.00
57900;BME280;60605;53.716;19.940;2023-03-03T03:46:54;100494.54;;;-2.47;100.00
57900;BME280;60605;53.716;19.940;2023-03-03T03:51:57;100504.66;;;-2.39;100.00
57900;BME280;60605;53.716;19.940;2023-03-03T03:57:00;100507.42;;;-2.35;100.00
57900;BME280;60605;53.716;19.940;2023-03-03T04:02:04;100512.41;;;-2.33;100.00
57900;BME280;60605;53.716;19.940;2023-03-03T04:07:07;100520.46;;;-2.33;100.00
57900;BME280;60605;53.716;19.940;2023-03-03T04:12:13;100515.69;;;-2.36;100.00
57900;BME280;60605;53.716;19.940;2023-03-03T04:17:19;100509.05;;;-2.40;100.00
57900;BME280;60605;53.716;19.940;2023-03-03T04:22:23;100490.64;;;-2.47;100.00
57900;BME280;60605;53.716;19.940;2023-03-03T04:27:26;100487.84;;;-2.55;100.00
57900;BME280;60605;53.716;19.940;2023-03-03T04:32:30;100479.42;;;-2.62;100.00
57900;BME280;60605;53.716;19.940;2023-03-03T04:37:37;100479.45;;;-2.67;100.00
57900;BME280;60605;53.716;19.940;2023-03-03T04:42:40;100475.98;;;-2.67;100.00
57900;BME280;60605;53.716;19.940;2023-03-03T04:47:44;100469.64;;;-2.66;100.00
57900;BME280;60605;53.716;19.940;2023-03-03T04:52:47;100473.73;;;-2.64;100.00
57900;BME280;60605;53.716;19.940;2023-03-03T04:57:50;100482.79;;;-2.55;100.00
57900;BME280;60605;53.716;19.940;2023-03-03T05:02:53;100487.33;;;-2.39;100.00
57900;BME280;60605;53.716;19.940;2023-03-03T05:07:56;100497.37;;;-2.21;100.00
57900;BME280;60605;53.716;19.940;2023-03-03T05:13:00;100495.22;;;-2.04;100.00
57900;BME280;60605;53.716;19.940;2023-03-03T05:18:03;100493.77;;;-1.88;100.00
57900;BME280;60605;53.716;19.940;2023-03-03T05:23:06;100492.92;;;-1.73;100.00
57900;BME280;60605;53.716;19.940;2023-03-03T05:28:10;100496.75;;;-1.61;100.00
57900;BME280;60605;53.716;19.940;2023-03-03T05:33:15;100494.89;;;-1.51;100.00
57900;BME280;60605;53.716;19.940;2023-03-03T05:38:18;100504.58;;;-1.41;100.00
57900;BME280;60605;53.716;19.940;2023-03-03T05:43:21;100495.02;;;-1.32;100.00
57900;BME280;60605;53.716;19.940;2023-03-03T05:48:25;100496.89;;;-1.24;100.00
57900;BME280;60605;53.716;19.940;2023-03-03T05:53:29;100513.90;;;-1.13;100.00
57900;BME280;60605;53.716;19.940;2023-03-03T05:58:32;100517.29;;;-1.04;100.00
57900;BME280;60605;53.716;19.940;2023-03-03T06:03:35;100514.28;;;-0.96;100.00
57900;BME280;60605;53.716;19.940;2023-03-03T06:08:38;100511.54;;;-0.90;100.00
57900;BME280;60605;53.716;19.940;2023-03-03T06:13:42;100517.09;;;-0.85;100.00
57900;BME280;60605;53.716;19.940;2023-03-03T06:18:45;100514.02;;;-0.80;100.00
57900;BME280;60605;53.716;19.940;2023-03-03T06:23:48;100517.84;;;-0.76;100.00
57900;BME280;60605;53.716;19.940;2023-03-03T06:28:51;100513.16;;;-0.70;100.00
57900;BME280;60605;53.716;19.940;2023-03-03T06:33:57;100502.52;;;-0.61;100.00
57900;BME280;60605;53.716;19.940;2023-03-03T06:39:01;100502.74;;;-0.52;100.00
57900;BME280;60605;53.716;19.940;2023-03-03T06:44:04;100516.06;;;-0.41;100.00
57900;BME280;60605;53.716;19.940;2023-03-03T06:49:07;100519.36;;;-0.30;100.00
57900;BME280;60605;53.716;19.940;2023-03-03T06:54:15;100519.00;;;-0.20;100.00
57900;BME280;60605;53.716;19.940;2023-03-03T06:59:20;100522.19;;;-0.11;100.00
57900;BME280;60605;53.716;19.940;2023-03-03T07:04:28;100524.89;;;-0.02;100.00
57900;BME280;60605;53.716;19.940;2023-03-03T07:09:32;100530.84;;;0.09;100.00
57900;BME280;60605;53.716;19.940;2023-03-03T07:14:42;100534.83;;;0.20;100.00
57900;BME280;60605;53.716;19.940;2023-03-03T07:19:46;100537.45;;;0.29;100.00
57900;BME280;60605;53.716;19.940;2023-03-03T07:24:53;100545.63;;;0.40;100.00
57900;BME280;60605;53.716;19.940;2023-03-03T07:30:24;100554.50;;;0.52;100.00
57900;BME280;60605;53.716;19.940;2023-03-03T07:35:37;100558.73;;;0.61;100.00
57900;BME280;60605;53.716;19.940;2023-03-03T07:40:49;100558.90;;;0.67;100.00
57900;BME280;60605;53.716;19.940;2023-03-03T07:51:25;100548.13;;;0.81;100.00
57900;BME280;60605;53.716;19.940;2023-03-03T07:56:33;100549.05;;;0.90;100.00
57900;BME280;60605;53.716;19.940;2023-03-03T08:01:43;100548.83;;;1.00;100.00
57900;BME280;60605;53.716;19.940;2023-03-03T08:06:59;100556.63;;;1.08;100.00
57900;BME280;60605;53.716;19.940;2023-03-03T08:17:13;100548.81;;;1.28;100.00
57900;BME280;60605;53.716;19.940;2023-03-03T08:22:32;100544.05;;;1.40;100.00
57900;BME280;60605;53.716;19.940;2023-03-03T08:27:36;100543.48;;;1.49;100.00
57900;BME280;60605;53.716;19.940;2023-03-03T08:32:40;100535.31;;;1.60;100.00
57900;BME280;60605;53.716;19.940;2023-03-03T08:37:43;100528.73;;;1.73;100.00
57900;BME280;60605;53.716;19.940;2023-03-03T08:42:47;100522.66;;;1.86;100.00
57900;BME280;60605;53.716;19.940;2023-03-03T08:47:51;100525.52;;;2.03;100.00
57900;BME280;60605;53.716;19.940;2023-03-03T08:52:54;100516.33;;;2.23;100.00
57900;BME280;60605;53.716;19.940;2023-03-03T08:57:58;100509.15;;;2.37;100.00
57900;BME280;60605;53.716;19.940;2023-03-03T09:03:02;100514.42;;;2.45;100.00
57900;BME280;60605;53.716;19.940;2023-03-03T09:08:06;100520.34;;;2.57;100.00
57900;BME280;60605;53.716;19.940;2023-03-03T09:13:13;100522.23;;;2.77;100.00
57900;BME280;60605;53.716;19.940;2023-03-03T09:18:19;100514.10;;;2.97;100.00
57900;BME280;60605;53.716;19.940;2023-03-03T09:23:27;100511.23;;;3.16;100.00
57900;BME280;60605;53.716;19.940;2023-03-03T09:28:31;100508.02;;;3.37;100.00
57900;BME280;60605;53.716;19.940;2023-03-03T09:33:45;100511.02;;;3.71;100.00
57900;BME280;60605;53.716;19.940;2023-03-03T09:38:49;100515.41;;;3.95;100.00
57900;BME280;60605;53.716;19.940;2023-03-03T09:44:11;100514.68;;;4.10;100.00
57900;BME280;60605;53.716;19.940;2023-03-03T09:49:31;100513.06;;;4.26;100.00
57900;BME280;60605;53.716;19.940;2023-03-03T10:16:20;100502.58;;;5.14;100.00
57900;BME280;60605;53.716;19.940;2023-03-03T10:21:45;100504.26;;;5.46;99.79
57900;BME280;60605;53.716;19.940;2023-03-03T10:38:30;100487.46;;;6.30;94.38
57900;BME280;60605;53.716;19.940;2023-03-03T11:05:39;100474.58;;;8.22;85.37
57900;BME280;60605;53.716;19.940;2023-03-03T13:19:07;100357.70;;;8.42;75.35
57900;BME280;60605;53.716;19.940;2023-03-03T13:24:30;100357.30;;;8.36;75.93
57900;BME280;60605;53.716;19.940;2023-03-03T13:29:34;100347.84;;;8.27;75.53
57900;BME280;60605;53.716;19.940;2023-03-03T13:40:16;100337.42;;;8.20;74.71
57900;BME280;60605;53.716;19.940;2023-03-03T13:55:44;100325.20;;;8.25;73.50
57900;BME280;60605;53.716;19.940;2023-03-03T14:06:02;100324.13;;;8.25;73.46
57900;BME280;60605;53.716;19.940;2023-03-03T14:22:10;100309.48;;;8.08;73.51
57900;BME280;60605;53.716;19.940;2023-03-03T14:27:26;100296.89;;;7.96;73.57
57900;BME280;60605;53.716;19.940;2023-03-03T14:32:28;100286.13;;;7.71;73.63
57900;BME280;60605;53.716;19.940;2023-03-03T14:37:46;100280.98;;;7.47;74.17
57900;BME280;60605;53.716;19.940;2023-03-03T14:42:53;100268.64;;;7.36;74.96
57900;BME280;60605;53.716;19.940;2023-03-03T14:47:56;100264.84;;;7.34;75.58
57900;BME280;60605;53.716;19.940;2023-03-03T14:53:38;100259.18;;;7.36;76.02
57900;BME280;60605;53.716;19.940;2023-03-03T14:58:43;100257.78;;;7.36;76.20
57900;BME280;60605;53.716;19.940;2023-03-03T15:25:08;100239.86;;;7.15;76.99
57900;BME280;60605;53.716;19.940;2023-03-03T15:30:24;100236.38;;;7.02;77.43
57900;BME280;60605;53.716;19.940;2023-03-03T15:35:59;100234.68;;;6.83;77.89
57900;BME280;60605;53.716;19.940;2023-03-03T15:51:55;100224.50;;;6.10;79.82
57900;BME280;60605;53.716;19.940;2023-03-03T15:57:16;100219.78;;;5.92;80.41
57900;BME280;60605;53.716;19.940;2023-03-03T16:02:27;100220.09;;;5.73;81.39
57900;BME280;60605;53.716;19.940;2023-03-03T16:39:38;100196.60;;;3.65;89.31
57900;BME280;60605;53.716;19.940;2023-03-03T16:55:22;100184.51;;;2.97;93.06
57900;BME280;60605;53.716;19.940;2023-03-03T17:00:29;100183.63;;;2.83;93.84
57900;BME280;60605;53.716;19.940;2023-03-03T17:06:09;100180.52;;;2.69;94.82
57900;BME280;60605;53.716;19.940;2023-03-03T17:11:25;100175.70;;;2.57;95.55
57900;BME280;60605;53.716;19.940;2023-03-03T17:16:35;100175.16;;;2.47;96.10
57900;BME280;60605;53.716;19.940;2023-03-03T17:44:10;100141.38;;;2.26;99.78
57900;BME280;60605;53.716;19.940;2023-03-03T17:49:37;100143.03;;;2.25;100.00
57900;BME280;60605;53.716;19.940;2023-03-03T18:26:45;100139.11;;;1.97;100.00
57900;BME280;60605;53.716;19.940;2023-03-03T18:42:41;100127.61;;;1.69;100.00
57900;BME280;60605;53.716;19.940;2023-03-03T18:58:23;100120.67;;;1.46;100.00
57900;BME280;60605;53.716;19.940;2023-03-03T19:08:55;100123.02;;;1.34;100.00
57900;BME280;60605;53.716;19.940;2023-03-03T19:19:32;100107.77;;;1.25;100.00
57900;BME280;60605;53.716;19.940;2023-03-03T19:24:36;100103.02;;;1.20;100.00
57900;BME280;60605;53.716;19.940;2023-03-03T21:33:00;99939.54;;;2.25;100.00
57900;BME280;60605;53.716;19.940;2023-03-03T21:38:05;99939.82;;;2.26;100.00
57900;BME280;60605;53.716;19.940;2023-03-03T21:43:06;99924.21;;;2.28;100.00
57900;BME280;60605;53.716;19.940;2023-03-03T21:48:08;99917.30;;;2.28;100.00
57900;BME280;60605;53.716;19.940;2023-03-03T21:53:10;99927.89;;;2.28;100.00
57900;BME280;60605;53.716;19.940;2023-03-03T21:58:12;99920.48;;;2.28;100.00
57900;BME280;60605;53.716;19.940;2023-03-03T22:03:14;99914.10;;;2.28;100.00
57900;BME280;60605;53.716;19.940;2023-03-03T22:08:17;99905.08;;;2.29;100.00
57900;BME280;60605;53.716;19.940;2023-03-03T22:13:24;99903.05;;;2.30;100.00
57900;BME280;60605;53.716;19.940;2023-03-03T22:18:26;99896.65;;;2.31;100.00
57900;BME280;60605;53.716;19.940;2023-03-03T22:23:28;99879.48;;;2.32;100.00
57900;BME280;60605;53.716;19.940;2023-03-03T22:28:30;99856.88;;;2.33;100.00
